sensor_id;sensor_type;location;lat;lon;timestamp;temperature;humidity
46416;DHT22;32620;51.704;7.822;2022-12-05T00:01:19;2.60;99.90
46416;DHT22;32620;51.704;7.822;2022-12-05T00:03:46;2.60;99.90
46416;DHT22;32620;51.704;7.822;2022-12-05T00:06:12;2.50;99.90
46416;DHT22;32620;51.704;7.822;2022-12-05T00:08:37;2.50;99.90
46416;DHT22;32620;51.704;7.822;2022-12-05T00:11:03;2.60;99.90
46416;DHT22;32620;51.704;7.822;2022-12-05T00:13:28;2.50;99.90
46416;DHT22;32620;51.704;7.822;2022-12-05T00:15:54;2.50;99.90
46416;DHT22;32620;51.704;7.822;2022-12-05T00:18:19;2.50;99.90
46416;DHT22;32620;51.704;7.822;2022-12-05T00:20:45;2.50;99.90
46416;DHT22;32620;51.704;7.822;2022-12-05T00:23:11;2.60;99.90
46416;DHT22;32620;51.704;7.822;2022-12-05T00:25:36;2.60;99.90
46416;DHT22;32620;51.704;7.822;2022-12-05T00:28:02;2.50;99.90
46416;DHT22;32620;51.704;7.822;2022-12-05T00:30:27;2.50;99.90
46416;DHT22;32620;51.704;7.822;2022-12-05T00:32:53;2.50;99.90
46416;DHT22;32620;51.704;7.822;2022-12-05T00:35:18;2.50;99.90
46416;DHT22;32620;51.704;7.822;2022-12-05T00:37:44;2.50;99.90
46416;DHT22;32620;51.704;7.822;2022-12-05T00:40:09;2.50;99.90
46416;DHT22;32620;51.704;7.822;2022-12-05T00:42:35;2.50;99.90
46416;DHT22;32620;51.704;7.822;2022-12-05T00:45:00;2.50;99.90
46416;DHT22;32620;51.704;7.822;2022-12-05T00:47:26;2.50;99.90
46416;DHT22;32620;51.704;7.822;2022-12-05T00:49:51;2.50;99.90
46416;DHT22;32620;51.704;7.822;2022-12-05T00:52:16;2.50;99.90
46416;DHT22;32620;51.704;7.822;2022-12-05T00:54:42;2.50;99.90
46416;DHT22;32620;51.704;7.822;2022-12-05T00:57:07;2.50;99.90
46416;DHT22;32620;51.704;7.822;2022-12-05T00:59:33;2.50;99.90
46416;DHT22;32620;51.704;7.822;2022-12-05T01:01:58;2.50;99.90
46416;DHT22;32620;51.704;7.822;2022-12-05T01:04:24;2.50;99.90
46416;DHT22;32620;51.704;7.822;2022-12-05T01:06:50;2.50;99.90
46416;DHT22;32620;51.704;7.822;2022-12-05T01:09:18;2.40;99.90
46416;DHT22;32620;51.704;7.822;2022-12-05T01:11:44;2.50;99.90
46416;DHT22;32620;51.704;7.822;2022-12-05T01:14:11;2.50;99.90
46416;DHT22;32620;51.704;7.822;2022-12-05T01:16:37;2.50;99.90
46416;DHT22;32620;51.704;7.822;2022-12-05T01:19:04;2.50;99.90
46416;DHT22;32620;51.704;7.822;2022-12-05T01:21:30;2.50;99.90
46416;DHT22;32620;51.704;7.822;2022-12-05T01:23:56;2.50;99.90
46416;DHT22;32620;51.704;7.822;2022-12-05T01:26:21;2.60;99.90
46416;DHT22;32620;51.704;7.822;2022-12-05T01:28:47;2.60;99.90
46416;DHT22;32620;51.704;7.822;2022-12-05T01:31:29;2.50;99.90
46416;DHT22;32620;51.704;7.822;2022-12-05T01:33:56;2.50;99.90
46416;DHT22;32620;51.704;7.822;2022-12-05T01:36:22;2.60;99.90
46416;DHT22;32620;51.704;7.822;2022-12-05T01:38:48;2.60;99.90
46416;DHT22;32620;51.704;7.822;2022-12-05T01:41:15;2.60;99.90
46416;DHT22;32620;51.704;7.822;2022-12-05T01:44:04;2.50;99.90
46416;DHT22;32620;51.704;7.822;2022-12-05T01:46:27;2.60;99.90
46416;DHT22;32620;51.704;7.822;2022-12-05T01:48:54;2.50;99.90
46416;DHT22;32620;51.704;7.822;2022-12-05T01:51:20;2.50;99.90
46416;DHT22;32620;51.704;7.822;2022-12-05T01:53:45;2.50;99.90
46416;DHT22;32620;51.704;7.822;2022-12-05T01:56:11;2.50;99.90
46416;DHT22;32620;51.704;7.822;2022-12-05T01:58:37;2.50;99.90
46416;DHT22;32620;51.704;7.822;2022-12-05T02:01:04;2.50;99.90
46416;DHT22;32620;51.704;7.822;2022-12-05T02:03:30;2.50;99.90
46416;DHT22;32620;51.704;7.822;2022-12-05T02:05:56;2.50;99.90
46416;DHT22;32620;51.704;7.822;2022-12-05T02:08:22;2.50;99.90
46416;DHT22;32620;51.704;7.822;2022-12-05T02:10:49;2.50;99.90
46416;DHT22;32620;51.704;7.822;2022-12-05T02:21:47;2.50;99.90
46416;DHT22;32620;51.704;7.822;2022-12-05T02:30:10;2.50;99.90
46416;DHT22;32620;51.704;7.822;2022-12-05T02:32:29;2.50;99.90
46416;DHT22;32620;51.704;7.822;2022-12-05T02:37:53;2.50;99.90
46416;DHT22;32620;51.704;7.822;2022-12-05T02:40:23;2.50;99.90
46416;DHT22;32620;51.704;7.822;2022-12-05T02:42:55;2.50;99.90
46416;DHT22;32620;51.704;7.822;2022-12-05T02:45:23;2.60;99.90
46416;DHT22;32620;51.704;7.822;2022-12-05T02:47:50;2.50;99.90
46416;DHT22;32620;51.704;7.822;2022-12-05T02:50:17;2.50;99.90
46416;DHT22;32620;51.704;7.822;2022-12-05T02:52:44;2.50;99.90
46416;DHT22;32620;51.704;7.822;2022-12-05T02:55:11;2.50;99.90
46416;DHT22;32620;51.704;7.822;2022-12-05T02:57:38;2.50;99.90
46416;DHT22;32620;51.704;7.822;2022-12-05T03:00:05;2.50;99.90
46416;DHT22;32620;51.704;7.822;2022-12-05T03:02:31;2.50;99.90
46416;DHT22;32620;51.704;7.822;2022-12-05T03:05:01;2.50;99.90
46416;DHT22;32620;51.704;7.822;2022-12-05T03:07:28;2.50;99.90
46416;DHT22;32620;51.704;7.822;2022-12-05T03:09:57;2.50;99.90
46416;DHT22;32620;51.704;7.822;2022-12-05T03:12:26;2.50;99.90
46416;DHT22;32620;51.704;7.822;2022-12-05T03:14:54;2.50;99.90
46416;DHT22;32620;51.704;7.822;2022-12-05T03:17:23;2.50;99.90
46416;DHT22;32620;51.704;7.822;2022-12-05T03:20:26;2.50;99.90
46416;DHT22;32620;51.704;7.822;2022-12-05T03:22:43;2.50;99.90
46416;DHT22;32620;51.704;7.822;2022-12-05T03:25:10;2.50;99.90
46416;DHT22;32620;51.704;7.822;2022-12-05T03:27:44;2.50;99.90
46416;DHT22;32620;51.704;7.822;2022-12-05T03:30:11;2.50;99.90
46416;DHT22;32620;51.704;7.822;2022-12-05T03:32:41;2.50;99.90
46416;DHT22;32620;51.704;7.822;2022-12-05T03:37:54;2.60;99.90
46416;DHT22;32620;51.704;7.822;2022-12-05T03:40:52;2.50;99.90
46416;DHT22;32620;51.704;7.822;2022-12-05T03:43:10;2.50;99.90
46416;DHT22;32620;51.704;7.822;2022-12-05T03:45:40;2.50;99.90
46416;DHT22;32620;51.704;7.822;2022-12-05T03:48:09;2.50;99.90
46416;DHT22;32620;51.704;7.822;2022-12-05T03:50:38;2.50;99.90
46416;DHT22;32620;51.704;7.822;2022-12-05T03:53:07;2.50;99.90
46416;DHT22;32620;51.704;7.822;2022-12-05T03:55:34;2.50;99.90
46416;DHT22;32620;51.704;7.822;2022-12-05T03:58:04;2.50;99.90
46416;DHT22;32620;51.704;7.822;2022-12-05T04:00:32;2.50;99.90
46416;DHT22;32620;51.704;7.822;2022-12-05T04:03:07;2.60;99.90
46416;DHT22;32620;51.704;7.822;2022-12-05T04:05:37;2.50;99.90
46416;DHT22;32620;51.704;7.822;2022-12-05T04:08:05;2.50;99.90
46416;DHT22;32620;51.704;7.822;2022-12-05T04:10:33;2.50;99.90
46416;DHT22;32620;51.704;7.822;2022-12-05T04:13:14;2.50;99.90
46416;DHT22;32620;51.704;7.822;2022-12-05T04:16:16;2.60;99.90
46416;DHT22;32620;51.704;7.822;2022-12-05T04:18:59;2.50;99.90
46416;DHT22;32620;51.704;7.822;2022-12-05T04:21:28;2.50;99.90
46416;DHT22;32620;51.704;7.822;2022-12-05T04:24:12;2.50;99.90
46416;DHT22;32620;51.704;7.822;2022-12-05T04:27:02;2.50;99.90
46416;DHT22;32620;51.704;7.822;2022-12-05T04:29:31;2.50;99.90
46416;DHT22;32620;51.704;7.822;2022-12-05T04:31:58;2.60;99.90
46416;DHT22;32620;51.704;7.822;2022-12-05T04:34:25;2.50;99.90
46416;DHT22;32620;51.704;7.822;2022-12-05T04:37:01;2.50;99.90
46416;DHT22;32620;51.704;7.822;2022-12-05T04:39:36;2.50;99.90
46416;DHT22;32620;51.704;7.822;2022-12-05T04:42:05;2.50;99.90
46416;DHT22;32620;51.704;7.822;2022-12-05T04:44:32;2.50;99.90
46416;DHT22;32620;51.704;7.822;2022-12-05T04:47:00;2.50;99.90
46416;DHT22;32620;51.704;7.822;2022-12-05T04:49:27;2.50;99.90
46416;DHT22;32620;51.704;7.822;2022-12-05T04:51:54;2.50;99.90
46416;DHT22;32620;51.704;7.822;2022-12-05T04:54:22;2.50;99.90
46416;DHT22;32620;51.704;7.822;2022-12-05T04:56:50;2.50;99.90
46416;DHT22;32620;51.704;7.822;2022-12-05T04:59:17;2.50;99.90
46416;DHT22;32620;51.704;7.822;2022-12-05T05:01:44;2.50;99.90
46416;DHT22;32620;51.704;7.822;2022-12-05T05:04:13;2.40;99.90
46416;DHT22;32620;51.704;7.822;2022-12-05T05:06:41;2.40;99.90
46416;DHT22;32620;51.704;7.822;2022-12-05T05:09:07;2.40;99.90
46416;DHT22;32620;51.704;7.822;2022-12-05T05:11:33;2.40;99.90
46416;DHT22;32620;51.704;7.822;2022-12-05T05:13:59;2.50;99.90
46416;DHT22;32620;51.704;7.822;2022-12-05T05:16:26;2.50;99.90
46416;DHT22;32620;51.704;7.822;2022-12-05T05:18:51;2.50;99.90
46416;DHT22;32620;51.704;7.822;2022-12-05T05:21:28;2.50;99.90
46416;DHT22;32620;51.704;7.822;2022-12-05T05:23:54;2.50;99.90
46416;DHT22;32620;51.704;7.822;2022-12-05T05:26:20;2.40;99.90
46416;DHT22;32620;51.704;7.822;2022-12-05T05:28:46;2.40;99.90
46416;DHT22;32620;51.704;7.822;2022-12-05T05:31:12;2.40;99.90
46416;DHT22;32620;51.704;7.822;2022-12-05T05:33:38;2.50;99.90
46416;DHT22;32620;51.704;7.822;2022-12-05T05:36:04;2.40;99.90
46416;DHT22;32620;51.704;7.822;2022-12-05T05:38:30;2.50;99.90
46416;DHT22;32620;51.704;7.822;2022-12-05T05:40:59;2.50;99.90
46416;DHT22;32620;51.704;7.822;2022-12-05T05:43:24;2.50;99.90
46416;DHT22;32620;51.704;7.822;2022-12-05T05:45:49;2.50;99.90
46416;DHT22;32620;51.704;7.822;2022-12-05T05:48:15;2.50;99.90
46416;DHT22;32620;51.704;7.822;2022-12-05T05:50:40;2.50;99.90
46416;DHT22;32620;51.704;7.822;2022-12-05T05:53:06;2.40;99.90
46416;DHT22;32620;51.704;7.822;2022-12-05T05:55:31;2.50;99.90
46416;DHT22;32620;51.704;7.822;2022-12-05T05:57:57;2.30;99.90
46416;DHT22;32620;51.704;7.822;2022-12-05T06:00:22;2.30;99.90
46416;DHT22;32620;51.704;7.822;2022-12-05T06:02:48;2.20;99.90
46416;DHT22;32620;51.704;7.822;2022-12-05T06:05:13;2.20;99.90
46416;DHT22;32620;51.704;7.822;2022-12-05T06:07:39;2.20;99.90
46416;DHT22;32620;51.704;7.822;2022-12-05T06:10:04;2.20;99.90
46416;DHT22;32620;51.704;7.822;2022-12-05T06:12:30;2.10;99.90
46416;DHT22;32620;51.704;7.822;2022-12-05T06:14:55;2.10;99.90
46416;DHT22;32620;51.704;7.822;2022-12-05T06:17:21;2.10;99.90
46416;DHT22;32620;51.704;7.822;2022-12-05T06:19:46;2.10;99.90
46416;DHT22;32620;51.704;7.822;2022-12-05T06:22:12;2.10;99.90
46416;DHT22;32620;51.704;7.822;2022-12-05T06:24:37;2.10;99.90
46416;DHT22;32620;51.704;7.822;2022-12-05T06:27:03;2.10;99.90
46416;DHT22;32620;51.704;7.822;2022-12-05T06:29:28;2.10;99.90
46416;DHT22;32620;51.704;7.822;2022-12-05T06:31:54;2.10;99.90
46416;DHT22;32620;51.704;7.822;2022-12-05T06:34:19;2.10;99.90
46416;DHT22;32620;51.704;7.822;2022-12-05T06:36:45;2.10;99.90
46416;DHT22;32620;51.704;7.822;2022-12-05T06:39:10;2.10;99.90
46416;DHT22;32620;51.704;7.822;2022-12-05T06:41:36;2.00;99.90
46416;DHT22;32620;51.704;7.822;2022-12-05T06:44:01;2.00;99.90
46416;DHT22;32620;51.704;7.822;2022-12-05T06:46:26;1.90;99.90
46416;DHT22;32620;51.704;7.822;2022-12-05T06:48:52;1.90;99.90
46416;DHT22;32620;51.704;7.822;2022-12-05T06:51:18;1.80;99.90
46416;DHT22;32620;51.704;7.822;2022-12-05T06:53:44;1.80;99.90
46416;DHT22;32620;51.704;7.822;2022-12-05T06:56:14;1.80;99.90
46416;DHT22;32620;51.704;7.822;2022-12-05T06:58:40;1.80;99.90
46416;DHT22;32620;51.704;7.822;2022-12-05T07:01:09;1.80;99.90
46416;DHT22;32620;51.704;7.822;2022-12-05T07:03:55;1.80;99.90
46416;DHT22;32620;51.704;7.822;2022-12-05T07:06:20;1.80;99.90
46416;DHT22;32620;51.704;7.822;2022-12-05T07:08:46;1.80;99.90
46416;DHT22;32620;51.704;7.822;2022-12-05T07:11:11;1.80;99.90
46416;DHT22;32620;51.704;7.822;2022-12-05T07:13:37;1.80;99.90
46416;DHT22;32620;51.704;7.822;2022-12-05T07:16:02;1.80;99.90
46416;DHT22;32620;51.704;7.822;2022-12-05T07:18:31;1.80;99.90
46416;DHT22;32620;51.704;7.822;2022-12-05T07:20:57;1.90;99.90
46416;DHT22;32620;51.704;7.822;2022-12-05T07:23:23;1.90;99.90
46416;DHT22;32620;51.704;7.822;2022-12-05T07:25:49;1.90;99.90
46416;DHT22;32620;51.704;7.822;2022-12-05T07:28:14;1.90;99.90
46416;DHT22;32620;51.704;7.822;2022-12-05T07:30:39;1.90;99.90
46416;DHT22;32620;51.704;7.822;2022-12-05T07:33:05;1.90;99.90
46416;DHT22;32620;51.704;7.822;2022-12-05T07:35:30;1.90;99.90
46416;DHT22;32620;51.704;7.822;2022-12-05T07:37:56;1.90;99.90
46416;DHT22;32620;51.704;7.822;2022-12-05T07:40:21;2.00;99.90
46416;DHT22;32620;51.704;7.822;2022-12-05T07:42:47;2.00;99.90
46416;DHT22;32620;51.704;7.822;2022-12-05T07:45:12;2.00;99.90
46416;DHT22;32620;51.704;7.822;2022-12-05T07:47:38;1.90;99.90
46416;DHT22;32620;51.704;7.822;2022-12-05T07:50:04;1.90;99.90
46416;DHT22;32620;51.704;7.822;2022-12-05T07:52:29;2.00;99.90
46416;DHT22;32620;51.704;7.822;2022-12-05T07:54:55;2.00;99.90
46416;DHT22;32620;51.704;7.822;2022-12-05T07:57:20;1.90;99.90
46416;DHT22;32620;51.704;7.822;2022-12-05T07:59:46;2.00;99.90
46416;DHT22;32620;51.704;7.822;2022-12-05T08:02:11;2.00;99.90
46416;DHT22;32620;51.704;7.822;2022-12-05T08:04:37;2.00;99.90
46416;DHT22;32620;51.704;7.822;2022-12-05T08:07:02;2.00;99.90
46416;DHT22;32620;51.704;7.822;2022-12-05T08:09:28;2.00;99.90
46416;DHT22;32620;51.704;7.822;2022-12-05T08:11:53;2.00;99.90
46416;DHT22;32620;51.704;7.822;2022-12-05T08:14:19;2.10;99.90
46416;DHT22;32620;51.704;7.822;2022-12-05T08:16:44;2.10;99.90
46416;DHT22;32620;51.704;7.822;2022-12-05T08:19:12;2.10;99.90
46416;DHT22;32620;51.704;7.822;2022-12-05T08:21:38;2.10;99.90
46416;DHT22;32620;51.704;7.822;2022-12-05T08:24:04;2.10;99.90
46416;DHT22;32620;51.704;7.822;2022-12-05T08:26:30;2.10;99.90
46416;DHT22;32620;51.704;7.822;2022-12-05T08:28:57;2.00;99.90
46416;DHT22;32620;51.704;7.822;2022-12-05T08:31:23;2.00;99.90
46416;DHT22;32620;51.704;7.822;2022-12-05T08:33:49;2.00;99.90
46416;DHT22;32620;51.704;7.822;2022-12-05T08:36:15;2.00;99.90
46416;DHT22;32620;51.704;7.822;2022-12-05T08:38:41;2.00;99.90
46416;DHT22;32620;51.704;7.822;2022-12-05T08:41:08;1.90;99.90
46416;DHT22;32620;51.704;7.822;2022-12-05T08:43:34;1.90;99.90
46416;DHT22;32620;51.704;7.822;2022-12-05T08:46:00;1.90;99.90
46416;DHT22;32620;51.704;7.822;2022-12-05T08:48:26;1.90;99.90
46416;DHT22;32620;51.704;7.822;2022-12-05T08:50:52;1.80;99.90
46416;DHT22;32620;51.704;7.822;2022-12-05T08:53:17;1.80;99.90
46416;DHT22;32620;51.704;7.822;2022-12-05T08:55:43;1.70;99.90
46416;DHT22;32620;51.704;7.822;2022-12-05T08:58:10;1.70;99.90
46416;DHT22;32620;51.704;7.822;2022-12-05T09:00:35;1.60;99.90
46416;DHT22;32620;51.704;7.822;2022-12-05T09:03:01;1.60;99.90
46416;DHT22;32620;51.704;7.822;2022-12-05T09:05:26;1.60;99.90
46416;DHT22;32620;51.704;7.822;2022-12-05T09:07:52;1.60;99.90
46416;DHT22;32620;51.704;7.822;2022-12-05T09:10:17;1.60;99.90
46416;DHT22;32620;51.704;7.822;2022-12-05T09:12:43;1.60;99.90
46416;DHT22;32620;51.704;7.822;2022-12-05T09:15:09;1.60;99.90
46416;DHT22;32620;51.704;7.822;2022-12-05T09:17:35;1.50;99.90
46416;DHT22;32620;51.704;7.822;2022-12-05T09:20:00;1.50;99.90
46416;DHT22;32620;51.704;7.822;2022-12-05T09:22:26;1.40;99.90
46416;DHT22;32620;51.704;7.822;2022-12-05T09:24:51;1.50;99.90
46416;DHT22;32620;51.704;7.822;2022-12-05T09:27:17;1.40;99.90
46416;DHT22;32620;51.704;7.822;2022-12-05T09:29:42;1.40;99.90
46416;DHT22;32620;51.704;7.822;2022-12-05T09:32:08;1.40;99.90
46416;DHT22;32620;51.704;7.822;2022-12-05T09:34:35;1.30;99.90
46416;DHT22;32620;51.704;7.822;2022-12-05T09:37:00;1.30;99.90
46416;DHT22;32620;51.704;7.822;2022-12-05T09:39:26;1.30;99.90
46416;DHT22;32620;51.704;7.822;2022-12-05T09:42:27;1.30;99.90
46416;DHT22;32620;51.704;7.822;2022-12-05T09:44:40;1.30;99.90
46416;DHT22;32620;51.704;7.822;2022-12-05T09:47:12;1.40;99.90
46416;DHT22;32620;51.704;7.822;2022-12-05T09:49:42;1.40;99.90
46416;DHT22;32620;51.704;7.822;2022-12-05T09:52:12;1.40;99.90
46416;DHT22;32620;51.704;7.822;2022-12-05T09:54:40;1.40;99.90
46416;DHT22;32620;51.704;7.822;2022-12-05T09:57:06;1.40;99.90
46416;DHT22;32620;51.704;7.822;2022-12-05T09:59:33;1.40;99.90
46416;DHT22;32620;51.704;7.822;2022-12-05T10:02:02;1.30;99.90
46416;DHT22;32620;51.704;7.822;2022-12-05T10:04:40;1.30;99.90
46416;DHT22;32620;51.704;7.822;2022-12-05T10:07:14;1.30;99.90
46416;DHT22;32620;51.704;7.822;2022-12-05T10:12:40;1.30;99.90
46416;DHT22;32620;51.704;7.822;2022-12-05T10:15:15;1.40;99.90
46416;DHT22;32620;51.704;7.822;2022-12-05T10:17:44;1.40;99.90
46416;DHT22;32620;51.704;7.822;2022-12-05T10:20:14;1.40;99.90
46416;DHT22;32620;51.704;7.822;2022-12-05T10:22:45;1.50;99.90
46416;DHT22;32620;51.704;7.822;2022-12-05T10:25:12;1.50;99.90
46416;DHT22;32620;51.704;7.822;2022-12-05T10:27:40;1.50;99.90
46416;DHT22;32620;51.704;7.822;2022-12-05T10:30:12;1.60;99.90
46416;DHT22;32620;51.704;7.822;2022-12-05T10:33:12;1.60;99.90
46416;DHT22;32620;51.704;7.822;2022-12-05T10:35:25;1.60;99.90
46416;DHT22;32620;51.704;7.822;2022-12-05T10:37:53;1.60;99.90
46416;DHT22;32620;51.704;7.822;2022-12-05T10:40:20;1.60;99.90
46416;DHT22;32620;51.704;7.822;2022-12-05T10:42:46;1.70;99.90
46416;DHT22;32620;51.704;7.822;2022-12-05T10:45:13;1.60;99.90
46416;DHT22;32620;51.704;7.822;2022-12-05T10:47:39;1.60;99.90
46416;DHT22;32620;51.704;7.822;2022-12-05T10:50:07;1.60;99.90
46416;DHT22;32620;51.704;7.822;2022-12-05T10:52:41;1.50;99.90
46416;DHT22;32620;51.704;7.822;2022-12-05T10:55:07;1.50;99.90
46416;DHT22;32620;51.704;7.822;2022-12-05T10:57:32;1.50;99.90
46416;DHT22;32620;51.704;7.822;2022-12-05T11:00:08;1.50;99.90
46416;DHT22;32620;51.704;7.822;2022-12-05T11:02:33;1.40;99.90
46416;DHT22;32620;51.704;7.822;2022-12-05T11:05:01;1.40;99.90
46416;DHT22;32620;51.704;7.822;2022-12-05T11:07:29;1.40;99.90
46416;DHT22;32620;51.704;7.822;2022-12-05T11:09:56;1.40;99.90
46416;DHT22;32620;51.704;7.822;2022-12-05T11:12:24;1.40;99.90
46416;DHT22;32620;51.704;7.822;2022-12-05T11:14:53;1.30;99.90
46416;DHT22;32620;51.704;7.822;2022-12-05T11:17:24;1.30;99.90
46416;DHT22;32620;51.704;7.822;2022-12-05T11:19:50;1.30;99.90
46416;DHT22;32620;51.704;7.822;2022-12-05T11:22:15;1.30;99.90
46416;DHT22;32620;51.704;7.822;2022-12-05T11:24:41;1.40;99.90
46416;DHT22;32620;51.704;7.822;2022-12-05T11:29:58;1.30;99.90
46416;DHT22;32620;51.704;7.822;2022-12-05T11:32:24;1.30;99.90
46416;DHT22;32620;51.704;7.822;2022-12-05T11:35:24;1.40;99.90
46416;DHT22;32620;51.704;7.822;2022-12-05T11:37:37;1.40;99.90
46416;DHT22;32620;51.704;7.822;2022-12-05T11:40:13;1.40;99.90
46416;DHT22;32620;51.704;7.822;2022-12-05T11:42:44;1.50;99.90
46416;DHT22;32620;51.704;7.822;2022-12-05T11:45:20;1.50;99.90
46416;DHT22;32620;51.704;7.822;2022-12-05T11:48:02;1.50;99.90
46416;DHT22;32620;51.704;7.822;2022-12-05T11:50:36;1.60;99.90
46416;DHT22;32620;51.704;7.822;2022-12-05T11:53:24;1.60;99.90
46416;DHT22;32620;51.704;7.822;2022-12-05T11:55:50;1.60;99.90
46416;DHT22;32620;51.704;7.822;2022-12-05T11:58:37;1.60;99.90
46416;DHT22;32620;51.704;7.822;2022-12-05T12:01:08;1.50;99.90
46416;DHT22;32620;51.704;7.822;2022-12-05T12:14:19;1.50;99.90
46416;DHT22;32620;51.704;7.822;2022-12-05T12:16:53;1.50;99.90
46416;DHT22;32620;51.704;7.822;2022-12-05T12:19:29;1.40;99.90
46416;DHT22;32620;51.704;7.822;2022-12-05T12:30:09;1.50;99.90
46416;DHT22;32620;51.704;7.822;2022-12-05T12:32:39;1.40;99.90
46416;DHT22;32620;51.704;7.822;2022-12-05T12:35:13;1.40;99.90
46416;DHT22;32620;51.704;7.822;2022-12-05T12:37:42;1.40;99.90
46416;DHT22;32620;51.704;7.822;2022-12-05T12:40:20;1.40;99.90
46416;DHT22;32620;51.704;7.822;2022-12-05T12:42:50;1.40;99.90
46416;DHT22;32620;51.704;7.822;2022-12-05T12:45:24;1.40;99.90
46416;DHT22;32620;51.704;7.822;2022-12-05T12:48:01;1.30;99.90
46416;DHT22;32620;51.704;7.822;2022-12-05T12:50:31;1.30;99.90
46416;DHT22;32620;51.704;7.822;2022-12-05T12:53:03;1.30;99.90
46416;DHT22;32620;51.704;7.822;2022-12-05T12:55:39;1.30;99.90
46416;DHT22;32620;51.704;7.822;2022-12-05T12:58:11;1.30;99.90
46416;DHT22;32620;51.704;7.822;2022-12-05T13:00:44;1.20;99.90
46416;DHT22;32620;51.704;7.822;2022-12-05T13:03:14;1.20;99.90
46416;DHT22;32620;51.704;7.822;2022-12-05T13:05:43;1.20;99.90
46416;DHT22;32620;51.704;7.822;2022-12-05T13:08:46;1.20;99.90
46416;DHT22;32620;51.704;7.822;2022-12-05T13:10:57;1.20;99.90
46416;DHT22;32620;51.704;7.822;2022-12-05T13:13:25;1.20;99.90
46416;DHT22;32620;51.704;7.822;2022-12-05T13:15:56;1.20;99.90
46416;DHT22;32620;51.704;7.822;2022-12-05T13:18:23;1.20;99.90
46416;DHT22;32620;51.704;7.822;2022-12-05T13:20:51;1.20;99.90
46416;DHT22;32620;51.704;7.822;2022-12-05T13:23:18;1.20;99.90
46416;DHT22;32620;51.704;7.822;2022-12-05T13:25:45;1.20;99.90
46416;DHT22;32620;51.704;7.822;2022-12-05T13:30:57;1.20;99.90
46416;DHT22;32620;51.704;7.822;2022-12-05T13:33:28;1.20;99.90
46416;DHT22;32620;51.704;7.822;2022-12-05T13:35:55;1.20;99.90
46416;DHT22;32620;51.704;7.822;2022-12-05T13:38:41;1.20;99.90
46416;DHT22;32620;51.704;7.822;2022-12-05T13:41:37;1.20;99.90
46416;DHT22;32620;51.704;7.822;2022-12-05T13:44:27;1.20;99.90
46416;DHT22;32620;51.704;7.822;2022-12-05T13:46:54;1.20;99.90
46416;DHT22;32620;51.704;7.822;2022-12-05T13:49:24;1.20;99.90
46416;DHT22;32620;51.704;7.822;2022-12-05T13:51:53;1.20;99.90
46416;DHT22;32620;51.704;7.822;2022-12-05T13:54:20;1.20;99.90
46416;DHT22;32620;51.704;7.822;2022-12-05T13:56:48;1.20;99.90
46416;DHT22;32620;51.704;7.822;2022-12-05T14:02:00;1.10;99.90
46416;DHT22;32620;51.704;7.822;2022-12-05T14:04:40;1.20;99.90
46416;DHT22;32620;51.704;7.822;2022-12-05T14:07:08;1.10;99.90
46416;DHT22;32620;51.704;7.822;2022-12-05T14:09:50;1.10;99.90
46416;DHT22;32620;51.704;7.822;2022-12-05T14:14:59;1.20;99.90
46416;DHT22;32620;51.704;7.822;2022-12-05T14:17:29;1.20;99.90
46416;DHT22;32620;51.704;7.822;2022-12-05T14:22:46;1.10;99.90
46416;DHT22;32620;51.704;7.822;2022-12-05T14:25:20;1.20;99.90
46416;DHT22;32620;51.704;7.822;2022-12-05T14:27:52;1.10;99.90
46416;DHT22;32620;51.704;7.822;2022-12-05T14:30:21;1.10;99.90
46416;DHT22;32620;51.704;7.822;2022-12-05T14:32:48;1.10;99.90
46416;DHT22;32620;51.704;7.822;2022-12-05T14:35:15;1.10;99.90
46416;DHT22;32620;51.704;7.822;2022-12-05T14:37:42;1.10;99.90
46416;DHT22;32620;51.704;7.822;2022-12-05T14:40:45;1.00;99.90
46416;DHT22;32620;51.704;7.822;2022-12-05T14:43:04;1.00;99.90
46416;DHT22;32620;51.704;7.822;2022-12-05T14:45:34;1.00;99.90
46416;DHT22;32620;51.704;7.822;2022-12-05T14:48:02;1.00;99.90
46416;DHT22;32620;51.704;7.822;2022-12-05T14:50:34;1.00;99.90
46416;DHT22;32620;51.704;7.822;2022-12-05T14:55:53;1.10;99.90
46416;DHT22;32620;51.704;7.822;2022-12-05T15:00:53;1.00;99.90
46416;DHT22;32620;51.704;7.822;2022-12-05T15:03:22;1.00;99.90
46416;DHT22;32620;51.704;7.822;2022-12-05T15:05:49;1.00;99.90
46416;DHT22;32620;51.704;7.822;2022-12-05T15:08:15;1.00;99.90
46416;DHT22;32620;51.704;7.822;2022-12-05T15:10:40;1.00;99.90
46416;DHT22;32620;51.704;7.822;2022-12-05T15:13:22;1.00;99.90
46416;DHT22;32620;51.704;7.822;2022-12-05T15:16:11;1.00;99.90
46416;DHT22;32620;51.704;7.822;2022-12-05T15:18:37;1.00;99.90
46416;DHT22;32620;51.704;7.822;2022-12-05T15:21:20;1.00;99.90
46416;DHT22;32620;51.704;7.822;2022-12-05T15:23:47;1.00;99.90
46416;DHT22;32620;51.704;7.822;2022-12-05T15:26:17;1.00;99.90
46416;DHT22;32620;51.704;7.822;2022-12-05T15:31:29;1.00;99.90
46416;DHT22;32620;51.704;7.822;2022-12-05T15:33:56;1.00;99.90
46416;DHT22;32620;51.704;7.822;2022-12-05T15:36:23;1.00;99.90
46416;DHT22;32620;51.704;7.822;2022-12-05T15:38:50;1.00;99.90
46416;DHT22;32620;51.704;7.822;2022-12-05T15:41:18;1.00;99.90
46416;DHT22;32620;51.704;7.822;2022-12-05T15:43:43;1.00;99.90
46416;DHT22;32620;51.704;7.822;2022-12-05T15:46:22;1.00;99.90
46416;DHT22;32620;51.704;7.822;2022-12-05T15:48:50;1.00;99.90
46416;DHT22;32620;51.704;7.822;2022-12-05T15:51:16;1.00;99.90
46416;DHT22;32620;51.704;7.822;2022-12-05T15:53:44;1.00;99.90
46416;DHT22;32620;51.704;7.822;2022-12-05T15:56:14;1.00;99.90
46416;DHT22;32620;51.704;7.822;2022-12-05T15:58:46;0.90;99.90
46416;DHT22;32620;51.704;7.822;2022-12-05T16:01:14;1.00;99.90
46416;DHT22;32620;51.704;7.822;2022-12-05T16:03:44;0.90;99.90
46416;DHT22;32620;51.704;7.822;2022-12-05T16:08:56;1.00;99.90
46416;DHT22;32620;51.704;7.822;2022-12-05T16:11:22;1.00;99.90
46416;DHT22;32620;51.704;7.822;2022-12-05T16:13:49;1.00;99.90
46416;DHT22;32620;51.704;7.822;2022-12-05T16:16:16;1.00;99.90
46416;DHT22;32620;51.704;7.822;2022-12-05T16:19:02;0.90;99.90
46416;DHT22;32620;51.704;7.822;2022-12-05T16:21:30;1.00;99.90
46416;DHT22;32620;51.704;7.822;2022-12-05T16:23:59;1.00;99.90
46416;DHT22;32620;51.704;7.822;2022-12-05T16:26:26;0.90;99.90
46416;DHT22;32620;51.704;7.822;2022-12-05T16:28:58;0.90;99.90
46416;DHT22;32620;51.704;7.822;2022-12-05T16:31:24;0.90;99.90
46416;DHT22;32620;51.704;7.822;2022-12-05T16:34:06;0.90;99.90
46416;DHT22;32620;51.704;7.822;2022-12-05T16:36:32;0.90;99.90
46416;DHT22;32620;51.704;7.822;2022-12-05T16:38:58;0.90;99.90
46416;DHT22;32620;51.704;7.822;2022-12-05T16:41:31;1.00;99.90
46416;DHT22;32620;51.704;7.822;2022-12-05T16:43:56;0.90;99.90
46416;DHT22;32620;51.704;7.822;2022-12-05T16:49:15;0.90;99.90
46416;DHT22;32620;51.704;7.822;2022-12-05T16:51:42;0.90;99.90
46416;DHT22;32620;51.704;7.822;2022-12-05T16:54:08;0.90;99.90
46416;DHT22;32620;51.704;7.822;2022-12-05T16:56:34;0.90;99.90
46416;DHT22;32620;51.704;7.822;2022-12-05T16:59:03;0.90;99.90
46416;DHT22;32620;51.704;7.822;2022-12-05T17:01:29;0.90;99.90
46416;DHT22;32620;51.704;7.822;2022-12-05T17:03:55;0.90;99.90